sensor_id;sensor_type;location;lat;lon;timestamp;temperature;humidity
59881;DHT22;45751;51.380;10.326;2023-12-29T00:01:58;7.60;97.20
59881;DHT22;45751;51.380;10.326;2023-12-29T00:04:27;7.60;97.20
59881;DHT22;45751;51.380;10.326;2023-12-29T00:06:52;7.70;97.20
59881;DHT22;45751;51.380;10.326;2023-12-29T00:09:18;7.60;97.10
59881;DHT22;45751;51.380;10.326;2023-12-29T00:11:48;7.60;97.00
59881;DHT22;45751;51.380;10.326;2023-12-29T00:14:13;7.60;96.80
59881;DHT22;45751;51.380;10.326;2023-12-29T00:16:39;7.70;96.80
59881;DHT22;45751;51.380;10.326;2023-12-29T00:19:05;7.70;96.70
59881;DHT22;45751;51.380;10.326;2023-12-29T00:21:30;7.70;96.60
59881;DHT22;45751;51.380;10.326;2023-12-29T00:23:56;7.70;96.60
59881;DHT22;45751;51.380;10.326;2023-12-29T00:26:22;7.90;96.50
59881;DHT22;45751;51.380;10.326;2023-12-29T00:28:53;7.70;96.40
59881;DHT22;45751;51.380;10.326;2023-12-29T00:31:19;7.70;96.50
59881;DHT22;45751;51.380;10.326;2023-12-29T00:33:45;7.70;96.50
59881;DHT22;45751;51.380;10.326;2023-12-29T00:36:17;7.70;96.50
59881;DHT22;45751;51.380;10.326;2023-12-29T00:38:44;7.60;96.50
59881;DHT22;45751;51.380;10.326;2023-12-29T00:41:10;7.60;96.60
59881;DHT22;45751;51.380;10.326;2023-12-29T00:43:36;7.60;96.70
59881;DHT22;45751;51.380;10.326;2023-12-29T00:46:02;7.60;96.90
59881;DHT22;45751;51.380;10.326;2023-12-29T00:48:33;7.60;97.00
59881;DHT22;45751;51.380;10.326;2023-12-29T00:51:00;7.50;97.00
59881;DHT22;45751;51.380;10.326;2023-12-29T00:53:26;7.60;97.10
59881;DHT22;45751;51.380;10.326;2023-12-29T00:55:52;7.60;97.20
59881;DHT22;45751;51.380;10.326;2023-12-29T00:58:18;7.50;97.20
59881;DHT22;45751;51.380;10.326;2023-12-29T01:00:43;7.50;97.30
59881;DHT22;45751;51.380;10.326;2023-12-29T01:03:09;7.50;97.40
59881;DHT22;45751;51.380;10.326;2023-12-29T01:05:35;7.50;97.50
59881;DHT22;45751;51.380;10.326;2023-12-29T01:08:00;7.50;97.60
59881;DHT22;45751;51.380;10.326;2023-12-29T01:10:26;7.50;97.60
59881;DHT22;45751;51.380;10.326;2023-12-29T01:12:52;7.50;97.60
59881;DHT22;45751;51.380;10.326;2023-12-29T01:15:17;7.50;97.60
59881;DHT22;45751;51.380;10.326;2023-12-29T01:17:43;7.30;97.60
59881;DHT22;45751;51.380;10.326;2023-12-29T01:20:09;7.50;97.80
59881;DHT22;45751;51.380;10.326;2023-12-29T01:22:35;7.50;98.00
59881;DHT22;45751;51.380;10.326;2023-12-29T01:25:01;7.50;98.10
59881;DHT22;45751;51.380;10.326;2023-12-29T01:27:27;7.50;98.20
59881;DHT22;45751;51.380;10.326;2023-12-29T01:29:52;7.50;98.30
59881;DHT22;45751;51.380;10.326;2023-12-29T01:32:19;7.50;98.40
59881;DHT22;45751;51.380;10.326;2023-12-29T01:34:45;7.50;98.60
59881;DHT22;45751;51.380;10.326;2023-12-29T01:37:10;7.50;98.60
59881;DHT22;45751;51.380;10.326;2023-12-29T01:39:36;7.60;98.60
59881;DHT22;45751;51.380;10.326;2023-12-29T01:42:02;7.50;98.60
59881;DHT22;45751;51.380;10.326;2023-12-29T01:44:28;7.50;98.70
59881;DHT22;45751;51.380;10.326;2023-12-29T01:46:56;7.60;98.80
59881;DHT22;45751;51.380;10.326;2023-12-29T01:49:24;7.60;98.80
59881;DHT22;45751;51.380;10.326;2023-12-29T01:51:55;7.70;98.80
59881;DHT22;45751;51.380;10.326;2023-12-29T01:54:32;7.60;98.80
59881;DHT22;45751;51.380;10.326;2023-12-29T01:57:00;7.60;98.70
59881;DHT22;45751;51.380;10.326;2023-12-29T01:59:29;7.60;98.70
59881;DHT22;45751;51.380;10.326;2023-12-29T02:01:56;7.60;98.70
59881;DHT22;45751;51.380;10.326;2023-12-29T02:04:27;7.60;98.70
59881;DHT22;45751;51.380;10.326;2023-12-29T02:06:53;7.60;98.60
59881;DHT22;45751;51.380;10.326;2023-12-29T02:09:19;7.60;98.70
59881;DHT22;45751;51.380;10.326;2023-12-29T02:11:46;7.60;98.70
59881;DHT22;45751;51.380;10.326;2023-12-29T02:14:12;7.60;98.60
59881;DHT22;45751;51.380;10.326;2023-12-29T02:22:06;7.70;98.60
59881;DHT22;45751;51.380;10.326;2023-12-29T02:24:34;7.60;98.50
59881;DHT22;45751;51.380;10.326;2023-12-29T02:29:40;7.60;98.40
59881;DHT22;45751;51.380;10.326;2023-12-29T02:32:11;7.60;98.40
59881;DHT22;45751;51.380;10.326;2023-12-29T02:34:40;7.60;98.40
59881;DHT22;45751;51.380;10.326;2023-12-29T02:37:08;7.70;98.40
59881;DHT22;45751;51.380;10.326;2023-12-29T02:39:34;7.70;98.30
59881;DHT22;45751;51.380;10.326;2023-12-29T02:42:00;7.60;98.40
59881;DHT22;45751;51.380;10.326;2023-12-29T02:44:27;7.50;98.30
59881;DHT22;45751;51.380;10.326;2023-12-29T02:46:53;7.60;98.20
59881;DHT22;45751;51.380;10.326;2023-12-29T02:49:18;7.60;98.20
59881;DHT22;45751;51.380;10.326;2023-12-29T02:51:44;7.60;98.10
59881;DHT22;45751;51.380;10.326;2023-12-29T02:54:11;7.60;97.90
59881;DHT22;45751;51.380;10.326;2023-12-29T02:56:37;7.60;97.80
59881;DHT22;45751;51.380;10.326;2023-12-29T02:59:03;7.60;97.80
59881;DHT22;45751;51.380;10.326;2023-12-29T03:01:28;7.70;97.80
59881;DHT22;45751;51.380;10.326;2023-12-29T03:03:54;7.80;97.80
59881;DHT22;45751;51.380;10.326;2023-12-29T03:06:20;7.70;97.70
59881;DHT22;45751;51.380;10.326;2023-12-29T03:08:46;7.70;97.70
59881;DHT22;45751;51.380;10.326;2023-12-29T03:11:11;7.70;97.70
59881;DHT22;45751;51.380;10.326;2023-12-29T03:13:37;7.70;97.60
59881;DHT22;45751;51.380;10.326;2023-12-29T03:16:03;7.70;97.70
59881;DHT22;45751;51.380;10.326;2023-12-29T03:18:29;7.70;97.70
59881;DHT22;45751;51.380;10.326;2023-12-29T03:20:55;7.70;97.70
59881;DHT22;45751;51.380;10.326;2023-12-29T03:23:21;7.70;97.60
59881;DHT22;45751;51.380;10.326;2023-12-29T03:25:47;7.70;97.60
59881;DHT22;45751;51.380;10.326;2023-12-29T03:28:12;7.70;97.60
59881;DHT22;45751;51.380;10.326;2023-12-29T03:30:38;7.70;97.60
59881;DHT22;45751;51.380;10.326;2023-12-29T03:33:04;7.70;97.70
59881;DHT22;45751;51.380;10.326;2023-12-29T03:35:29;7.70;97.60
59881;DHT22;45751;51.380;10.326;2023-12-29T03:37:55;7.70;97.50
59881;DHT22;45751;51.380;10.326;2023-12-29T03:40:21;7.70;97.60
59881;DHT22;45751;51.380;10.326;2023-12-29T03:42:46;7.70;97.70
59881;DHT22;45751;51.380;10.326;2023-12-29T03:45:12;7.70;97.60
59881;DHT22;45751;51.380;10.326;2023-12-29T03:47:38;7.60;97.60
59881;DHT22;45751;51.380;10.326;2023-12-29T03:50:04;7.70;97.70
59881;DHT22;45751;51.380;10.326;2023-12-29T03:52:30;7.70;97.70
59881;DHT22;45751;51.380;10.326;2023-12-29T03:54:55;7.70;97.80
59881;DHT22;45751;51.380;10.326;2023-12-29T03:57:21;7.70;97.80
59881;DHT22;45751;51.380;10.326;2023-12-29T03:59:47;7.70;97.80
59881;DHT22;45751;51.380;10.326;2023-12-29T04:02:12;7.70;97.80
59881;DHT22;45751;51.380;10.326;2023-12-29T04:04:38;7.70;97.90
59881;DHT22;45751;51.380;10.326;2023-12-29T04:07:04;7.60;97.80
59881;DHT22;45751;51.380;10.326;2023-12-29T04:09:30;7.70;97.90
59881;DHT22;45751;51.380;10.326;2023-12-29T04:11:56;7.70;97.90
59881;DHT22;45751;51.380;10.326;2023-12-29T04:14:22;7.70;97.90
59881;DHT22;45751;51.380;10.326;2023-12-29T04:16:48;7.70;97.90
59881;DHT22;45751;51.380;10.326;2023-12-29T04:19:13;7.70;97.90
59881;DHT22;45751;51.380;10.326;2023-12-29T04:21:39;7.80;97.90
59881;DHT22;45751;51.380;10.326;2023-12-29T04:24:05;7.80;97.90
59881;DHT22;45751;51.380;10.326;2023-12-29T04:26:36;7.80;97.90
59881;DHT22;45751;51.380;10.326;2023-12-29T04:29:02;7.80;97.90
59881;DHT22;45751;51.380;10.326;2023-12-29T04:31:28;7.80;97.90
59881;DHT22;45751;51.380;10.326;2023-12-29T04:33:54;7.80;97.90
59881;DHT22;45751;51.380;10.326;2023-12-29T04:36:19;7.70;97.80
59881;DHT22;45751;51.380;10.326;2023-12-29T04:38:45;7.80;97.80
59881;DHT22;45751;51.380;10.326;2023-12-29T04:41:14;7.80;97.80
59881;DHT22;45751;51.380;10.326;2023-12-29T04:43:40;7.80;97.80
59881;DHT22;45751;51.380;10.326;2023-12-29T04:46:06;7.80;97.90
59881;DHT22;45751;51.380;10.326;2023-12-29T04:48:31;7.80;98.80
59881;DHT22;45751;51.380;10.326;2023-12-29T04:50:57;7.80;98.80
59881;DHT22;45751;51.380;10.326;2023-12-29T04:53:23;7.80;98.80
59881;DHT22;45751;51.380;10.326;2023-12-29T04:55:48;7.70;98.80
59881;DHT22;45751;51.380;10.326;2023-12-29T04:58:14;7.80;98.60
59881;DHT22;45751;51.380;10.326;2023-12-29T05:00:40;7.90;98.50
59881;DHT22;45751;51.380;10.326;2023-12-29T05:03:05;7.80;98.50
59881;DHT22;45751;51.380;10.326;2023-12-29T05:05:31;7.80;98.40
59881;DHT22;45751;51.380;10.326;2023-12-29T05:07:57;7.70;98.40
59881;DHT22;45751;51.380;10.326;2023-12-29T05:10:23;7.80;98.40
59881;DHT22;45751;51.380;10.326;2023-12-29T05:12:48;7.80;98.50
59881;DHT22;45751;51.380;10.326;2023-12-29T05:15:14;7.80;99.00
59881;DHT22;45751;51.380;10.326;2023-12-29T05:17:40;7.70;98.60
59881;DHT22;45751;51.380;10.326;2023-12-29T05:20:09;7.70;98.60
59881;DHT22;45751;51.380;10.326;2023-12-29T05:22:35;7.70;98.50
59881;DHT22;45751;51.380;10.326;2023-12-29T05:25:01;7.70;98.40
59881;DHT22;45751;51.380;10.326;2023-12-29T05:27:27;7.70;98.40
59881;DHT22;45751;51.380;10.326;2023-12-29T05:29:53;7.70;98.40
59881;DHT22;45751;51.380;10.326;2023-12-29T05:32:18;7.70;98.40
59881;DHT22;45751;51.380;10.326;2023-12-29T05:34:44;7.70;98.90
59881;DHT22;45751;51.380;10.326;2023-12-29T05:37:10;7.70;98.40
59881;DHT22;45751;51.380;10.326;2023-12-29T05:39:35;7.70;98.40
59881;DHT22;45751;51.380;10.326;2023-12-29T05:42:01;7.80;98.40
59881;DHT22;45751;51.380;10.326;2023-12-29T05:44:27;7.80;98.40
59881;DHT22;45751;51.380;10.326;2023-12-29T05:46:53;7.80;98.40
59881;DHT22;45751;51.380;10.326;2023-12-29T05:49:24;7.80;98.30
59881;DHT22;45751;51.380;10.326;2023-12-29T05:51:51;7.80;98.30
59881;DHT22;45751;51.380;10.326;2023-12-29T05:54:17;7.90;98.30
59881;DHT22;45751;51.380;10.326;2023-12-29T05:56:43;7.90;98.30
59881;DHT22;45751;51.380;10.326;2023-12-29T05:59:09;7.90;98.20
59881;DHT22;45751;51.380;10.326;2023-12-29T06:01:34;7.90;98.10
59881;DHT22;45751;51.380;10.326;2023-12-29T06:04:00;8.00;98.00
59881;DHT22;45751;51.380;10.326;2023-12-29T06:06:26;8.00;98.00
59881;DHT22;45751;51.380;10.326;2023-12-29T06:08:52;8.00;97.90
59881;DHT22;45751;51.380;10.326;2023-12-29T06:11:17;8.10;97.90
59881;DHT22;45751;51.380;10.326;2023-12-29T06:13:43;8.10;97.80
59881;DHT22;45751;51.380;10.326;2023-12-29T06:16:09;8.10;97.80
59881;DHT22;45751;51.380;10.326;2023-12-29T06:18:35;8.10;97.90
59881;DHT22;45751;51.380;10.326;2023-12-29T06:21:02;8.10;97.80
59881;DHT22;45751;51.380;10.326;2023-12-29T06:23:28;8.00;97.80
59881;DHT22;45751;51.380;10.326;2023-12-29T06:25:54;8.10;97.70
59881;DHT22;45751;51.380;10.326;2023-12-29T06:28:20;8.00;97.70
59881;DHT22;45751;51.380;10.326;2023-12-29T06:30:45;8.00;97.70
59881;DHT22;45751;51.380;10.326;2023-12-29T06:33:11;8.00;97.70
59881;DHT22;45751;51.380;10.326;2023-12-29T06:35:37;8.00;97.80
59881;DHT22;45751;51.380;10.326;2023-12-29T06:38:04;8.00;97.80
59881;DHT22;45751;51.380;10.326;2023-12-29T06:40:30;8.00;97.90
59881;DHT22;45751;51.380;10.326;2023-12-29T06:42:56;8.00;98.00
59881;DHT22;45751;51.380;10.326;2023-12-29T06:45:21;8.00;98.00
59881;DHT22;45751;51.380;10.326;2023-12-29T06:47:47;7.90;98.20
59881;DHT22;45751;51.380;10.326;2023-12-29T06:50:13;8.00;98.20
59881;DHT22;45751;51.380;10.326;2023-12-29T06:52:39;7.90;98.30
59881;DHT22;45751;51.380;10.326;2023-12-29T06:55:06;7.90;98.40
59881;DHT22;45751;51.380;10.326;2023-12-29T06:57:32;7.90;98.40
59881;DHT22;45751;51.380;10.326;2023-12-29T06:59:58;7.90;98.50
59881;DHT22;45751;51.380;10.326;2023-12-29T07:02:23;8.00;98.60
59881;DHT22;45751;51.380;10.326;2023-12-29T07:04:49;8.00;98.70
59881;DHT22;45751;51.380;10.326;2023-12-29T07:07:15;8.00;98.70
59881;DHT22;45751;51.380;10.326;2023-12-29T07:09:41;8.00;98.70
59881;DHT22;45751;51.380;10.326;2023-12-29T07:12:07;8.00;98.70
59881;DHT22;45751;51.380;10.326;2023-12-29T07:14:33;8.00;98.80
59881;DHT22;45751;51.380;10.326;2023-12-29T07:17:01;8.00;98.80
59881;DHT22;45751;51.380;10.326;2023-12-29T07:19:27;8.00;98.80
59881;DHT22;45751;51.380;10.326;2023-12-29T07:21:59;8.00;98.90
59881;DHT22;45751;51.380;10.326;2023-12-29T07:24:25;8.00;99.00
59881;DHT22;45751;51.380;10.326;2023-12-29T07:26:51;8.00;99.10
59881;DHT22;45751;51.380;10.326;2023-12-29T07:29:16;8.00;99.00
59881;DHT22;45751;51.380;10.326;2023-12-29T07:31:42;8.00;99.00
59881;DHT22;45751;51.380;10.326;2023-12-29T07:34:08;8.10;99.10
59881;DHT22;45751;51.380;10.326;2023-12-29T07:36:38;8.10;99.10
59881;DHT22;45751;51.380;10.326;2023-12-29T07:39:04;8.00;99.10
59881;DHT22;45751;51.380;10.326;2023-12-29T07:41:30;8.10;99.20
59881;DHT22;45751;51.380;10.326;2023-12-29T07:43:55;8.10;99.20
59881;DHT22;45751;51.380;10.326;2023-12-29T07:46:27;8.10;99.30
59881;DHT22;45751;51.380;10.326;2023-12-29T07:48:53;8.10;99.40
59881;DHT22;45751;51.380;10.326;2023-12-29T07:51:20;8.10;99.40
59881;DHT22;45751;51.380;10.326;2023-12-29T07:53:45;8.10;99.50
59881;DHT22;45751;51.380;10.326;2023-12-29T07:56:11;8.10;99.60
59881;DHT22;45751;51.380;10.326;2023-12-29T07:58:37;8.10;99.60
59881;DHT22;45751;51.380;10.326;2023-12-29T08:01:03;8.10;99.60
59881;DHT22;45751;51.380;10.326;2023-12-29T08:03:28;8.10;99.70
59881;DHT22;45751;51.380;10.326;2023-12-29T08:05:54;8.00;99.70
59881;DHT22;45751;51.380;10.326;2023-12-29T08:08:20;8.10;99.70
59881;DHT22;45751;51.380;10.326;2023-12-29T08:10:45;8.10;99.70
59881;DHT22;45751;51.380;10.326;2023-12-29T08:13:11;8.10;99.70
59881;DHT22;45751;51.380;10.326;2023-12-29T08:15:37;8.00;99.70
59881;DHT22;45751;51.380;10.326;2023-12-29T08:18:04;8.10;99.80
59881;DHT22;45751;51.380;10.326;2023-12-29T08:20:29;8.00;99.80
59881;DHT22;45751;51.380;10.326;2023-12-29T08:22:55;8.00;99.80
59881;DHT22;45751;51.380;10.326;2023-12-29T08:25:22;8.10;99.70
59881;DHT22;45751;51.380;10.326;2023-12-29T08:27:48;8.10;99.70
59881;DHT22;45751;51.380;10.326;2023-12-29T08:30:14;8.10;99.70
59881;DHT22;45751;51.380;10.326;2023-12-29T08:32:40;8.10;99.70
59881;DHT22;45751;51.380;10.326;2023-12-29T08:35:05;8.00;99.60
59881;DHT22;45751;51.380;10.326;2023-12-29T08:37:32;8.10;99.50
59881;DHT22;45751;51.380;10.326;2023-12-29T08:40:02;8.10;99.50
59881;DHT22;45751;51.380;10.326;2023-12-29T08:42:28;8.10;99.90
59881;DHT22;45751;51.380;10.326;2023-12-29T08:44:54;8.10;99.50
59881;DHT22;45751;51.380;10.326;2023-12-29T08:47:20;8.10;99.50
59881;DHT22;45751;51.380;10.326;2023-12-29T08:49:46;8.10;99.60
59881;DHT22;45751;51.380;10.326;2023-12-29T08:52:14;8.10;99.70
59881;DHT22;45751;51.380;10.326;2023-12-29T08:54:40;8.10;99.70
59881;DHT22;45751;51.380;10.326;2023-12-29T08:57:06;8.10;99.70
59881;DHT22;45751;51.380;10.326;2023-12-29T08:59:33;8.10;99.70
59881;DHT22;45751;51.380;10.326;2023-12-29T09:01:59;8.10;99.80
59881;DHT22;45751;51.380;10.326;2023-12-29T09:04:25;8.10;99.80
59881;DHT22;45751;51.380;10.326;2023-12-29T09:06:52;8.10;99.80
59881;DHT22;45751;51.380;10.326;2023-12-29T09:09:17;8.10;99.80
59881;DHT22;45751;51.380;10.326;2023-12-29T09:11:44;8.20;99.80
59881;DHT22;45751;51.380;10.326;2023-12-29T09:14:10;8.10;99.90
59881;DHT22;45751;51.380;10.326;2023-12-29T09:16:36;8.10;99.90
59881;DHT22;45751;51.380;10.326;2023-12-29T09:19:02;8.10;99.90
59881;DHT22;45751;51.380;10.326;2023-12-29T09:21:28;8.10;99.90
59881;DHT22;45751;51.380;10.326;2023-12-29T09:23:53;8.20;99.90
59881;DHT22;45751;51.380;10.326;2023-12-29T09:26:19;8.20;99.90
59881;DHT22;45751;51.380;10.326;2023-12-29T09:28:45;8.10;99.80
59881;DHT22;45751;51.380;10.326;2023-12-29T09:31:11;8.20;99.90
59881;DHT22;45751;51.380;10.326;2023-12-29T09:33:37;8.20;99.90
59881;DHT22;45751;51.380;10.326;2023-12-29T09:36:04;8.30;99.90
59881;DHT22;45751;51.380;10.326;2023-12-29T09:38:30;8.30;99.80
59881;DHT22;45751;51.380;10.326;2023-12-29T09:41:01;8.30;99.80
59881;DHT22;45751;51.380;10.326;2023-12-29T09:43:31;8.30;99.80
59881;DHT22;45751;51.380;10.326;2023-12-29T09:45:58;8.40;99.90
59881;DHT22;45751;51.380;10.326;2023-12-29T09:48:26;8.40;99.70
59881;DHT22;45751;51.380;10.326;2023-12-29T09:50:52;8.40;99.60
59881;DHT22;45751;51.380;10.326;2023-12-29T09:53:20;8.40;99.70
59881;DHT22;45751;51.380;10.326;2023-12-29T09:55:49;8.40;99.70
59881;DHT22;45751;51.380;10.326;2023-12-29T09:58:15;8.40;99.70
59881;DHT22;45751;51.380;10.326;2023-12-29T10:00:44;8.40;99.60
59881;DHT22;45751;51.380;10.326;2023-12-29T10:03:12;8.40;99.70
59881;DHT22;45751;51.380;10.326;2023-12-29T10:05:37;8.40;99.60
59881;DHT22;45751;51.380;10.326;2023-12-29T10:08:05;8.50;99.60
59881;DHT22;45751;51.380;10.326;2023-12-29T10:10:33;8.50;99.60
59881;DHT22;45751;51.380;10.326;2023-12-29T10:13:01;8.50;99.50
59881;DHT22;45751;51.380;10.326;2023-12-29T10:20:59;8.60;99.80
59881;DHT22;45751;51.380;10.326;2023-12-29T10:23:42;8.60;99.90
59881;DHT22;45751;51.380;10.326;2023-12-29T10:26:11;8.50;99.90
59881;DHT22;45751;51.380;10.326;2023-12-29T10:28:37;8.50;99.90
59881;DHT22;45751;51.380;10.326;2023-12-29T10:31:04;8.40;99.90
59881;DHT22;45751;51.380;10.326;2023-12-29T10:33:30;8.50;99.90
59881;DHT22;45751;51.380;10.326;2023-12-29T10:36:01;8.40;99.90
59881;DHT22;45751;51.380;10.326;2023-12-29T10:38:33;8.30;99.90
59881;DHT22;45751;51.380;10.326;2023-12-29T10:41:17;8.30;99.90
59881;DHT22;45751;51.380;10.326;2023-12-29T10:43:45;8.20;99.90
59881;DHT22;45751;51.380;10.326;2023-12-29T10:46:25;8.20;99.90
59881;DHT22;45751;51.380;10.326;2023-12-29T10:48:51;8.10;99.90
59881;DHT22;45751;51.380;10.326;2023-12-29T10:51:26;8.10;99.90
59881;DHT22;45751;51.380;10.326;2023-12-29T10:53:56;8.00;99.90
59881;DHT22;45751;51.380;10.326;2023-12-29T10:56:26;8.00;99.90
59881;DHT22;45751;51.380;10.326;2023-12-29T10:59:03;8.00;99.90
59881;DHT22;45751;51.380;10.326;2023-12-29T11:01:33;8.00;99.90
59881;DHT22;45751;51.380;10.326;2023-12-29T11:04:06;8.00;99.90
59881;DHT22;45751;51.380;10.326;2023-12-29T11:06:43;8.00;99.90
59881;DHT22;45751;51.380;10.326;2023-12-29T11:09:12;8.00;99.90
59881;DHT22;45751;51.380;10.326;2023-12-29T11:11:38;8.00;99.90
59881;DHT22;45751;51.380;10.326;2023-12-29T11:14:04;8.00;99.90
59881;DHT22;45751;51.380;10.326;2023-12-29T11:16:31;8.00;99.90
59881;DHT22;45751;51.380;10.326;2023-12-29T11:19:01;8.00;99.90
59881;DHT22;45751;51.380;10.326;2023-12-29T11:21:30;8.00;99.90
59881;DHT22;45751;51.380;10.326;2023-12-29T11:23:57;8.00;99.90
59881;DHT22;45751;51.380;10.326;2023-12-29T11:26:24;8.00;99.90
59881;DHT22;45751;51.380;10.326;2023-12-29T11:28:52;8.00;99.90
59881;DHT22;45751;51.380;10.326;2023-12-29T11:31:18;8.00;99.90
59881;DHT22;45751;51.380;10.326;2023-12-29T11:34:00;8.00;99.90
59881;DHT22;45751;51.380;10.326;2023-12-29T11:36:32;8.00;99.90
59881;DHT22;45751;51.380;10.326;2023-12-29T11:39:20;8.00;99.90
59881;DHT22;45751;51.380;10.326;2023-12-29T11:42:01;7.90;99.90
59881;DHT22;45751;51.380;10.326;2023-12-29T11:44:28;7.90;99.90
59881;DHT22;45751;51.380;10.326;2023-12-29T11:46:56;7.90;99.90
59881;DHT22;45751;51.380;10.326;2023-12-29T11:49:25;7.90;99.90
59881;DHT22;45751;51.380;10.326;2023-12-29T11:51:51;7.80;99.90
59881;DHT22;45751;51.380;10.326;2023-12-29T11:54:25;7.90;99.90
59881;DHT22;45751;51.380;10.326;2023-12-29T11:56:54;7.80;99.90
59881;DHT22;45751;51.380;10.326;2023-12-29T11:59:24;7.90;99.90
59881;DHT22;45751;51.380;10.326;2023-12-29T12:01:52;7.90;99.90
59881;DHT22;45751;51.380;10.326;2023-12-29T12:04:43;7.90;99.90
59881;DHT22;45751;51.380;10.326;2023-12-29T12:13:04;7.90;99.90
59881;DHT22;45751;51.380;10.326;2023-12-29T12:17:56;7.90;99.90
59881;DHT22;45751;51.380;10.326;2023-12-29T12:20:22;8.00;99.90
59881;DHT22;45751;51.380;10.326;2023-12-29T12:22:51;8.00;99.90
59881;DHT22;45751;51.380;10.326;2023-12-29T12:25:22;8.00;99.90
59881;DHT22;45751;51.380;10.326;2023-12-29T12:27:52;8.00;99.90
59881;DHT22;45751;51.380;10.326;2023-12-29T12:30:21;8.00;99.90
59881;DHT22;45751;51.380;10.326;2023-12-29T12:32:57;8.10;99.90
59881;DHT22;45751;51.380;10.326;2023-12-29T12:35:23;8.00;99.90
59881;DHT22;45751;51.380;10.326;2023-12-29T12:37:49;8.00;99.90
59881;DHT22;45751;51.380;10.326;2023-12-29T12:40:27;8.10;99.90
59881;DHT22;45751;51.380;10.326;2023-12-29T12:42:53;8.20;99.90
59881;DHT22;45751;51.380;10.326;2023-12-29T12:45:20;8.20;99.90
59881;DHT22;45751;51.380;10.326;2023-12-29T12:47:52;8.20;99.90
59881;DHT22;45751;51.380;10.326;2023-12-29T12:50:20;8.20;99.90
59881;DHT22;45751;51.380;10.326;2023-12-29T12:52:46;8.20;99.90
59881;DHT22;45751;51.380;10.326;2023-12-29T12:55:12;8.30;99.90
59881;DHT22;45751;51.380;10.326;2023-12-29T12:57:41;8.30;99.90
59881;DHT22;45751;51.380;10.326;2023-12-29T13:00:07;8.30;99.90
59881;DHT22;45751;51.380;10.326;2023-12-29T13:02:34;8.40;99.90
59881;DHT22;45751;51.380;10.326;2023-12-29T13:05:01;8.40;99.90
59881;DHT22;45751;51.380;10.326;2023-12-29T13:07:31;8.40;99.90
59881;DHT22;45751;51.380;10.326;2023-12-29T13:09:57;8.40;99.90
59881;DHT22;45751;51.380;10.326;2023-12-29T13:12:23;8.40;99.90
59881;DHT22;45751;51.380;10.326;2023-12-29T13:14:50;8.40;99.90
59881;DHT22;45751;51.380;10.326;2023-12-29T13:17:17;8.40;99.90
59881;DHT22;45751;51.380;10.326;2023-12-29T13:19:43;8.40;99.90
59881;DHT22;45751;51.380;10.326;2023-12-29T13:22:12;8.30;99.90
59881;DHT22;45751;51.380;10.326;2023-12-29T13:24:45;8.30;99.90
59881;DHT22;45751;51.380;10.326;2023-12-29T13:27:11;8.20;99.90
59881;DHT22;45751;51.380;10.326;2023-12-29T13:29:41;8.20;99.90
59881;DHT22;45751;51.380;10.326;2023-12-29T13:32:20;8.30;99.90
59881;DHT22;45751;51.380;10.326;2023-12-29T13:35:06;8.20;99.90
59881;DHT22;45751;51.380;10.326;2023-12-29T13:37:54;8.20;99.90
59881;DHT22;45751;51.380;10.326;2023-12-29T13:40:56;8.20;99.90
59881;DHT22;45751;51.380;10.326;2023-12-29T13:43:25;8.20;99.90
59881;DHT22;45751;51.380;10.326;2023-12-29T13:45:54;8.10;99.90
59881;DHT22;45751;51.380;10.326;2023-12-29T13:48:20;8.20;99.90
59881;DHT22;45751;51.380;10.326;2023-12-29T13:50:48;8.20;99.90
59881;DHT22;45751;51.380;10.326;2023-12-29T13:53:20;8.20;99.90
59881;DHT22;45751;51.380;10.326;2023-12-29T13:55:47;8.20;99.90
59881;DHT22;45751;51.380;10.326;2023-12-29T13:58:13;8.20;99.90
59881;DHT22;45751;51.380;10.326;2023-12-29T14:00:43;8.20;99.90
59881;DHT22;45751;51.380;10.326;2023-12-29T14:03:27;8.30;99.90
59881;DHT22;45751;51.380;10.326;2023-12-29T14:06:04;8.20;99.90
59881;DHT22;45751;51.380;10.326;2023-12-29T14:08:45;8.20;99.90
59881;DHT22;45751;51.380;10.326;2023-12-29T14:11:11;8.20;99.90
59881;DHT22;45751;51.380;10.326;2023-12-29T14:13:44;8.10;99.90
59881;DHT22;45751;51.380;10.326;2023-12-29T14:16:11;8.10;99.90
59881;DHT22;45751;51.380;10.326;2023-12-29T14:21:29;8.00;99.90
59881;DHT22;45751;51.380;10.326;2023-12-29T14:23:59;8.10;99.90
59881;DHT22;45751;51.380;10.326;2023-12-29T14:26:25;8.00;99.90
59881;DHT22;45751;51.380;10.326;2023-12-29T14:29:23;8.00;99.90
59881;DHT22;45751;51.380;10.326;2023-12-29T14:31:50;8.00;99.90
59881;DHT22;45751;51.380;10.326;2023-12-29T14:34:20;8.00;99.90
59881;DHT22;45751;51.380;10.326;2023-12-29T14:36:45;8.00;99.90
59881;DHT22;45751;51.380;10.326;2023-12-29T14:39:11;7.90;99.90
59881;DHT22;45751;51.380;10.326;2023-12-29T14:41:38;7.90;99.90
59881;DHT22;45751;51.380;10.326;2023-12-29T14:44:04;7.90;99.90
59881;DHT22;45751;51.380;10.326;2023-12-29T14:46:30;7.90;99.90
59881;DHT22;45751;51.380;10.326;2023-12-29T14:48:57;8.00;99.90
59881;DHT22;45751;51.380;10.326;2023-12-29T14:51:24;8.00;99.90
59881;DHT22;45751;51.380;10.326;2023-12-29T14:53:50;8.00;99.90
59881;DHT22;45751;51.380;10.326;2023-12-29T14:56:17;8.00;99.90
59881;DHT22;45751;51.380;10.326;2023-12-29T14:58:43;8.00;99.90
59881;DHT22;45751;51.380;10.326;2023-12-29T15:01:09;8.00;99.90
59881;DHT22;45751;51.380;10.326;2023-12-29T15:03:36;8.00;99.90
59881;DHT22;45751;51.380;10.326;2023-12-29T15:06:03;8.10;99.90
59881;DHT22;45751;51.380;10.326;2023-12-29T15:08:29;8.00;99.90
59881;DHT22;45751;51.380;10.326;2023-12-29T15:11:01;8.10;99.90
59881;DHT22;45751;51.380;10.326;2023-12-29T15:13:27;8.10;99.90
59881;DHT22;45751;51.380;10.326;2023-12-29T15:15:54;8.10;99.90
59881;DHT22;45751;51.380;10.326;2023-12-29T15:18:19;8.20;99.90
59881;DHT22;45751;51.380;10.326;2023-12-29T15:20:45;8.20;99.90
59881;DHT22;45751;51.380;10.326;2023-12-29T15:23:11;8.20;99.90
59881;DHT22;45751;51.380;10.326;2023-12-29T15:25:36;8.20;99.90
59881;DHT22;45751;51.380;10.326;2023-12-29T15:28:03;8.20;99.90
59881;DHT22;45751;51.380;10.326;2023-12-29T15:30:29;8.20;99.90
59881;DHT22;45751;51.380;10.326;2023-12-29T15:32:55;8.30;99.90
59881;DHT22;45751;51.380;10.326;2023-12-29T15:35:20;8.30;99.90
59881;DHT22;45751;51.380;10.326;2023-12-29T15:37:46;8.30;99.90
59881;DHT22;45751;51.380;10.326;2023-12-29T15:40:12;8.20;99.90
59881;DHT22;45751;51.380;10.326;2023-12-29T15:42:38;8.30;99.90
59881;DHT22;45751;51.380;10.326;2023-12-29T15:45:04;8.30;99.90
59881;DHT22;45751;51.380;10.326;2023-12-29T15:47:29;8.30;99.90
59881;DHT22;45751;51.380;10.326;2023-12-29T15:49:55;8.30;99.90
59881;DHT22;45751;51.380;10.326;2023-12-29T15:52:21;8.30;99.90
59881;DHT22;45751;51.380;10.326;2023-12-29T15:54:46;8.40;99.90
59881;DHT22;45751;51.380;10.326;2023-12-29T15:57:12;8.20;99.90